sensor_id;sensor_type;location;lat;lon;timestamp;P1;durP1;ratioP1;P2;durP2;ratioP2
46983;SDS011;34732;52.112;9.366;2023-11-21T08:01:17;16.50;;;16.25;;
46983;SDS011;34732;52.112;9.366;2023-11-21T08:04:43;10.75;;;10.00;;
46983;SDS011;34732;52.112;9.366;2023-11-21T08:08:10;10.25;;;9.50;;
46983;SDS011;34732;52.112;9.366;2023-11-21T08:11:41;13.25;;;12.50;;
46983;SDS011;34732;52.112;9.366;2023-11-21T08:15:16;12.00;;;11.00;;
46983;SDS011;34732;52.112;9.366;2023-11-21T08:18:40;13.75;;;12.50;;
46983;SDS011;34732;52.112;9.366;2023-11-21T08:22:09;10.50;;;10.50;;
46983;SDS011;34732;52.112;9.366;2023-11-21T08:25:35;10.50;;;10.50;;
46983;SDS011;34732;52.112;9.366;2023-11-21T08:28:56;11.00;;;10.75;;
46983;SDS011;34732;52.112;9.366;2023-11-21T08:32:22;8.25;;;8.25;;
46983;SDS011;34732;52.112;9.366;2023-11-21T08:35:53;8.25;;;8.00;;
46983;SDS011;34732;52.112;9.366;2023-11-21T08:39:18;6.50;;;6.25;;
46983;SDS011;34732;52.112;9.366;2023-11-21T08:42:40;4.00;;;3.75;;
46983;SDS011;34732;52.112;9.366;2023-11-21T08:46:10;8.25;;;7.50;;
46983;SDS011;34732;52.112;9.366;2023-11-21T08:49:34;8.50;;;7.50;;
46983;SDS011;34732;52.112;9.366;2023-11-21T08:56:54;6.00;;;6.00;;
46983;SDS011;34732;52.112;9.366;2023-11-21T09:00:21;7.25;;;6.25;;
46983;SDS011;34732;52.112;9.366;2023-11-21T09:03:54;7.75;;;7.75;;
46983;SDS011;34732;52.112;9.366;2023-11-21T09:07:21;10.00;;;8.75;;
46983;SDS011;34732;52.112;9.366;2023-11-21T09:10:48;7.00;;;7.00;;
46983;SDS011;34732;52.112;9.366;2023-11-21T09:14:15;8.00;;;7.00;;
46983;SDS011;34732;52.112;9.366;2023-11-21T09:17:59;8.00;;;7.00;;
46983;SDS011;34732;52.112;9.366;2023-11-21T09:21:21;6.25;;;5.00;;
46983;SDS011;34732;52.112;9.366;2023-11-21T09:24:48;8.00;;;7.00;;
46983;SDS011;34732;52.112;9.366;2023-11-21T09:28:17;8.00;;;8.00;;
46983;SDS011;34732;52.112;9.366;2023-11-21T09:31:41;7.25;;;7.25;;
46983;SDS011;34732;52.112;9.366;2023-11-21T09:35:17;7.00;;;6.00;;
46983;SDS011;34732;52.112;9.366;2023-11-21T09:38:39;6.75;;;6.50;;
46983;SDS011;34732;52.112;9.366;2023-11-21T09:42:10;4.75;;;4.75;;
46983;SDS011;34732;52.112;9.366;2023-11-21T09:49:33;6.25;;;5.75;;
46983;SDS011;34732;52.112;9.366;2023-11-21T09:53:03;6.25;;;6.25;;
46983;SDS011;34732;52.112;9.366;2023-11-21T09:56:38;6.00;;;6.00;;
46983;SDS011;34732;52.112;9.366;2023-11-21T10:00:07;7.25;;;7.00;;
46983;SDS011;34732;52.112;9.366;2023-11-21T10:03:35;6.75;;;6.50;;
46983;SDS011;34732;52.112;9.366;2023-11-21T10:06:59;4.00;;;4.00;;
46983;SDS011;34732;52.112;9.366;2023-11-21T10:10:22;5.00;;;5.00;;
46983;SDS011;34732;52.112;9.366;2023-11-21T10:18:22;6.50;;;6.00;;
46983;SDS011;34732;52.112;9.366;2023-11-21T10:26:11;5.25;;;4.75;;
46983;SDS011;34732;52.112;9.366;2023-11-21T10:29:44;5.50;;;5.50;;
46983;SDS011;34732;52.112;9.366;2023-11-21T10:33:08;3.00;;;3.00;;
46983;SDS011;34732;52.112;9.366;2023-11-21T10:36:36;6.00;;;5.75;;
46983;SDS011;34732;52.112;9.366;2023-11-21T10:40:03;5.00;;;5.00;;
46983;SDS011;34732;52.112;9.366;2023-11-21T10:43:27;6.25;;;6.00;;
46983;SDS011;34732;52.112;9.366;2023-11-21T10:47:04;5.75;;;5.75;;
46983;SDS011;34732;52.112;9.366;2023-11-21T10:54:54;6.75;;;6.00;;
46983;SDS011;34732;52.112;9.366;2023-11-21T10:58:21;7.25;;;6.25;;
46983;SDS011;34732;52.112;9.366;2023-11-21T11:06:12;4.75;;;4.75;;
46983;SDS011;34732;52.112;9.366;2023-11-21T11:09:40;4.00;;;4.00;;
46983;SDS011;34732;52.112;9.366;2023-11-21T11:13:23;5.00;;;5.00;;
46983;SDS011;34732;52.112;9.366;2023-11-21T11:16:46;4.50;;;4.50;;
46983;SDS011;34732;52.112;9.366;2023-11-21T11:20:15;5.75;;;5.75;;
46983;SDS011;34732;52.112;9.366;2023-11-21T11:39:54;4.25;;;4.25;;
46983;SDS011;34732;52.112;9.366;2023-11-21T11:43:16;3.25;;;3.00;;
46983;SDS011;34732;52.112;9.366;2023-11-21T11:46:56;3.25;;;3.25;;
46983;SDS011;34732;52.112;9.366;2023-11-21T11:50:22;6.00;;;5.00;;
46983;SDS011;34732;52.112;9.366;2023-11-21T11:53:43;5.00;;;5.00;;
46983;SDS011;34732;52.112;9.366;2023-11-21T11:57:06;5.75;;;5.75;;
46983;SDS011;34732;52.112;9.366;2023-11-21T12:08:21;4.00;;;4.00;;
46983;SDS011;34732;52.112;9.366;2023-11-21T12:11:51;4.00;;;4.00;;
46983;SDS011;34732;52.112;9.366;2023-11-21T12:15:13;4.00;;;4.00;;
46983;SDS011;34732;52.112;9.366;2023-11-21T12:18:37;4.50;;;4.50;;
46983;SDS011;34732;52.112;9.366;2023-11-21T12:22:01;4.25;;;4.25;;
46983;SDS011;34732;52.112;9.366;2023-11-21T12:25:27;3.50;;;3.50;;
46983;SDS011;34732;52.112;9.366;2023-11-21T12:28:55;5.50;;;5.50;;
46983;SDS011;34732;52.112;9.366;2023-11-21T12:32:27;3.00;;;3.00;;
46983;SDS011;34732;52.112;9.366;2023-11-21T12:35:53;5.00;;;4.25;;
46983;SDS011;34732;52.112;9.366;2023-11-21T12:39:14;4.50;;;3.75;;
46983;SDS011;34732;52.112;9.366;2023-11-21T12:42:47;5.00;;;5.00;;
46983;SDS011;34732;52.112;9.366;2023-11-21T12:46:10;5.00;;;5.00;;
46983;SDS011;34732;52.112;9.366;2023-11-21T12:49:37;4.00;;;3.75;;
46983;SDS011;34732;52.112;9.366;2023-11-21T12:56:25;3.50;;;3.50;;
46983;SDS011;34732;52.112;9.366;2023-11-21T12:59:51;4.25;;;4.00;;
46983;SDS011;34732;52.112;9.366;2023-11-21T13:03:15;5.00;;;4.25;;
46983;SDS011;34732;52.112;9.366;2023-11-21T13:06:56;3.25;;;3.25;;
46983;SDS011;34732;52.112;9.366;2023-11-21T13:10:30;3.00;;;3.00;;
46983;SDS011;34732;52.112;9.366;2023-11-21T13:14:01;4.00;;;3.00;;
46983;SDS011;34732;52.112;9.366;2023-11-21T13:17:40;3.75;;;3.75;;
46983;SDS011;34732;52.112;9.366;2023-11-21T13:21:02;4.25;;;4.00;;
46983;SDS011;34732;52.112;9.366;2023-11-21T13:24:34;4.50;;;4.50;;
46983;SDS011;34732;52.112;9.366;2023-11-21T13:28:03;4.00;;;4.00;;
46983;SDS011;34732;52.112;9.366;2023-11-21T13:31:44;4.00;;;3.00;;
46983;SDS011;34732;52.112;9.366;2023-11-21T13:35:06;3.50;;;3.00;;
46983;SDS011;34732;52.112;9.366;2023-11-21T13:38:37;5.00;;;4.50;;
46983;SDS011;34732;52.112;9.366;2023-11-21T13:42:07;3.75;;;3.75;;
46983;SDS011;34732;52.112;9.366;2023-11-21T13:49:38;5.25;;;5.25;;
46983;SDS011;34732;52.112;9.366;2023-11-21T13:53:22;4.00;;;4.00;;
46983;SDS011;34732;52.112;9.366;2023-11-21T13:56:46;3.75;;;3.75;;
46983;SDS011;34732;52.112;9.366;2023-11-21T14:00:11;3.75;;;3.25;;
46983;SDS011;34732;52.112;9.366;2023-11-21T14:03:59;3.00;;;3.00;;
46983;SDS011;34732;52.112;9.366;2023-11-21T14:07:51;5.75;;;5.00;;
46983;SDS011;34732;52.112;9.366;2023-11-21T14:11:25;3.50;;;3.50;;
46983;SDS011;34732;52.112;9.366;2023-11-21T14:14:54;4.00;;;4.00;;
46983;SDS011;34732;52.112;9.366;2023-11-21T14:18:18;3.75;;;3.00;;
46983;SDS011;34732;52.112;9.366;2023-11-21T14:21:51;3.00;;;3.00;;
46983;SDS011;34732;52.112;9.366;2023-11-21T14:25:13;3.25;;;3.25;;
46983;SDS011;34732;52.112;9.366;2023-11-21T14:28:44;5.00;;;5.00;;
46983;SDS011;34732;52.112;9.366;2023-11-21T14:32:13;4.00;;;4.00;;
46983;SDS011;34732;52.112;9.366;2023-11-21T14:35:44;6.00;;;6.00;;
46983;SDS011;34732;52.112;9.366;2023-11-21T14:39:11;6.00;;;6.00;;
46983;SDS011;34732;52.112;9.366;2023-11-21T14:42:45;7.50;;;7.50;;
46983;SDS011;34732;52.112;9.366;2023-11-21T14:46:08;6.00;;;5.75;;
46983;SDS011;34732;52.112;9.366;2023-11-21T14:49:40;8.00;;;7.50;;
46983;SDS011;34732;52.112;9.366;2023-11-21T14:53:15;7.25;;;7.25;;
46983;SDS011;34732;52.112;9.366;2023-11-21T14:56:41;5.25;;;5.00;;
46983;SDS011;34732;52.112;9.366;2023-11-21T15:00:05;5.50;;;5.00;;
46983;SDS011;34732;52.112;9.366;2023-11-21T15:07:46;6.75;;;6.75;;
46983;SDS011;34732;52.112;9.366;2023-11-21T15:11:09;10.00;;;10.00;;
46983;SDS011;34732;52.112;9.366;2023-11-21T15:14:35;7.25;;;7.00;;
46983;SDS011;34732;52.112;9.366;2023-11-21T15:17:57;8.50;;;8.50;;
46983;SDS011;34732;52.112;9.366;2023-11-21T15:21:26;10.00;;;9.50;;
46983;SDS011;34732;52.112;9.366;2023-11-21T15:24:53;10.25;;;9.50;;
46983;SDS011;34732;52.112;9.366;2023-11-21T15:28:17;10.00;;;9.00;;
46983;SDS011;34732;52.112;9.366;2023-11-21T15:31:45;11.75;;;10.75;;
46983;SDS011;34732;52.112;9.366;2023-11-21T15:35:12;11.00;;;10.00;;
46983;SDS011;34732;52.112;9.366;2023-11-21T15:38:45;11.75;;;10.50;;
46983;SDS011;34732;52.112;9.366;2023-11-21T15:42:06;11.00;;;10.00;;
46983;SDS011;34732;52.112;9.366;2023-11-21T15:45:30;10.75;;;10.50;;
46983;SDS011;34732;52.112;9.366;2023-11-21T15:48:57;11.25;;;11.25;;
46983;SDS011;34732;52.112;9.366;2023-11-21T15:52:18;11.75;;;10.25;;
46983;SDS011;34732;52.112;9.366;2023-11-21T15:55:45;12.50;;;12.50;;
46983;SDS011;34732;52.112;9.366;2023-11-21T15:59:08;10.00;;;10.00;;
46983;SDS011;34732;52.112;9.366;2023-11-21T16:02:38;11.00;;;10.75;;
46983;SDS011;34732;52.112;9.366;2023-11-21T16:06:01;9.25;;;9.25;;
46983;SDS011;34732;52.112;9.366;2023-11-21T16:09:27;11.75;;;11.25;;
46983;SDS011;34732;52.112;9.366;2023-11-21T16:12:56;12.50;;;12.25;;
46983;SDS011;34732;52.112;9.366;2023-11-21T16:16:22;7.25;;;6.50;;
46983;SDS011;34732;52.112;9.366;2023-11-21T16:24:11;8.25;;;7.50;;
46983;SDS011;34732;52.112;9.366;2023-11-21T16:27:32;8.00;;;8.00;;
46983;SDS011;34732;52.112;9.366;2023-11-21T16:30:54;8.50;;;8.00;;
46983;SDS011;34732;52.112;9.366;2023-11-21T16:34:20;9.00;;;8.75;;
46983;SDS011;34732;52.112;9.366;2023-11-21T16:37:46;10.25;;;9.25;;
46983;SDS011;34732;52.112;9.366;2023-11-21T16:41:08;7.25;;;7.25;;
46983;SDS011;34732;52.112;9.366;2023-11-21T16:44:34;11.00;;;11.00;;
46983;SDS011;34732;52.112;9.366;2023-11-21T16:48:00;10.50;;;9.50;;
46983;SDS011;34732;52.112;9.366;2023-11-21T16:51:27;8.50;;;8.25;;
46983;SDS011;34732;52.112;9.366;2023-11-21T16:54:53;11.50;;;9.50;;
46983;SDS011;34732;52.112;9.366;2023-11-21T16:58:17;9.50;;;8.00;;
46983;SDS011;34732;52.112;9.366;2023-11-21T17:01:45;9.75;;;9.00;;
46983;SDS011;34732;52.112;9.366;2023-11-21T17:05:09;10.00;;;10.00;;
46983;SDS011;34732;52.112;9.366;2023-11-21T17:08:33;11.50;;;10.00;;
46983;SDS011;34732;52.112;9.366;2023-11-21T17:11:57;10.00;;;8.00;;
46983;SDS011;34732;52.112;9.366;2023-11-21T17:15:21;9.50;;;8.00;;
46983;SDS011;34732;52.112;9.366;2023-11-21T17:18:47;11.50;;;10.75;;
46983;SDS011;34732;52.112;9.366;2023-11-21T17:22:11;9.25;;;8.75;;
46983;SDS011;34732;52.112;9.366;2023-11-21T17:25:32;9.00;;;9.00;;
46983;SDS011;34732;52.112;9.366;2023-11-21T17:28:58;10.25;;;10.25;;
46983;SDS011;34732;52.112;9.366;2023-11-21T17:32:24;10.50;;;9.50;;
46983;SDS011;34732;52.112;9.366;2023-11-21T17:35:47;6.25;;;6.00;;
46983;SDS011;34732;52.112;9.366;2023-11-21T17:39:09;11.25;;;10.75;;
46983;SDS011;34732;52.112;9.366;2023-11-21T17:42:33;10.25;;;10.25;;
46983;SDS011;34732;52.112;9.366;2023-11-21T17:46:00;9.00;;;9.00;;
46983;SDS011;34732;52.112;9.366;2023-11-21T17:49:21;7.50;;;6.00;;
46983;SDS011;34732;52.112;9.366;2023-11-21T17:52:47;9.67;;;9.00;;
46983;SDS011;34732;52.112;9.366;2023-11-21T17:56:14;7.50;;;7.00;;
46983;SDS011;34732;52.112;9.366;2023-11-21T17:59:39;9.75;;;9.00;;
46983;SDS011;34732;52.112;9.366;2023-11-21T18:03:03;5.50;;;5.00;;
46983;SDS011;34732;52.112;9.366;2023-11-21T18:06:26;6.50;;;6.50;;
46983;SDS011;34732;52.112;9.366;2023-11-21T18:09:50;7.75;;;7.25;;
46983;SDS011;34732;52.112;9.366;2023-11-21T18:13:16;8.00;;;7.50;;
46983;SDS011;34732;52.112;9.366;2023-11-21T18:16:39;7.50;;;7.00;;
46983;SDS011;34732;52.112;9.366;2023-11-21T18:20:03;6.00;;;6.00;;
46983;SDS011;34732;52.112;9.366;2023-11-21T18:23:24;9.25;;;8.50;;
46983;SDS011;34732;52.112;9.366;2023-11-21T18:26:46;8.00;;;8.00;;
46983;SDS011;34732;52.112;9.366;2023-11-21T18:30:10;9.50;;;9.50;;
46983;SDS011;34732;52.112;9.366;2023-11-21T18:33:32;9.25;;;9.25;;
46983;SDS011;34732;52.112;9.366;2023-11-21T18:36:58;13.00;;;12.75;;
46983;SDS011;34732;52.112;9.366;2023-11-21T18:40:26;10.25;;;8.75;;
46983;SDS011;34732;52.112;9.366;2023-11-21T18:43:47;11.00;;;10.50;;
46983;SDS011;34732;52.112;9.366;2023-11-21T18:47:12;13.00;;;12.25;;
46983;SDS011;34732;52.112;9.366;2023-11-21T18:50:47;8.50;;;8.50;;
46983;SDS011;34732;52.112;9.366;2023-11-21T18:54:15;11.75;;;11.00;;
46983;SDS011;34732;52.112;9.366;2023-11-21T18:57:43;14.50;;;13.75;;
46983;SDS011;34732;52.112;9.366;2023-11-21T19:01:09;13.50;;;12.75;;
46983;SDS011;34732;52.112;9.366;2023-11-21T19:04:30;11.50;;;10.50;;
46983;SDS011;34732;52.112;9.366;2023-11-21T19:07:54;11.00;;;10.25;;
46983;SDS011;34732;52.112;9.366;2023-11-21T19:11:22;10.00;;;10.00;;
46983;SDS011;34732;52.112;9.366;2023-11-21T19:14:46;9.75;;;9.00;;
46983;SDS011;34732;52.112;9.366;2023-11-21T19:18:12;11.75;;;11.75;;
46983;SDS011;34732;52.112;9.366;2023-11-21T19:21:36;12.75;;;12.25;;
46983;SDS011;34732;52.112;9.366;2023-11-21T19:25:04;7.00;;;7.00;;
46983;SDS011;34732;52.112;9.366;2023-11-21T19:28:29;12.00;;;11.75;;
46983;SDS011;34732;52.112;9.366;2023-11-21T19:31:52;9.25;;;9.00;;
46983;SDS011;34732;52.112;9.366;2023-11-21T19:35:18;12.00;;;11.75;;
46983;SDS011;34732;52.112;9.366;2023-11-21T19:38:44;15.25;;;14.50;;
46983;SDS011;34732;52.112;9.366;2023-11-21T19:42:10;12.00;;;12.00;;
46983;SDS011;34732;52.112;9.366;2023-11-21T19:45:34;7.00;;;6.75;;
46983;SDS011;34732;52.112;9.366;2023-11-21T19:48:58;12.50;;;12.00;;
46983;SDS011;34732;52.112;9.366;2023-11-21T19:52:22;10.50;;;9.50;;
46983;SDS011;34732;52.112;9.366;2023-11-21T19:55:51;11.25;;;11.25;;
46983;SDS011;34732;52.112;9.366;2023-11-21T19:59:14;13.00;;;12.00;;
46983;SDS011;34732;52.112;9.366;2023-11-21T20:02:38;8.00;;;8.00;;
